Witch Wells, Arizona
Current Conditions -  °F | °C
As of 3:54 PM on Friday 19 Dec 2014 (Local Time) from KSJN Reporting Station
Clear Clear  
Wind Chill:   Ceiling: Unl
Heat Index:   Visibility: 10mi
Dew Point: -3°   Wind: 5mph
Humidity: 53%   Direction: 340°NNW
Pressure: 30.18"   Gusts: NA
Location:  34.4981°N, 109.241°W
Report Text: KSJN 192254Z AUTO 34004KT 10SM CLR 06/M03 A3018 RMK AO2 SLP210 T00561033
Loading
Personal Weather Stations






























Interactive Weather Map New forecast layout! Learn more

10-Day Weather Forecast

Advertisements
Track Severe Weather on mobile